x

Buoy A01 - Mass. Bay/stellwagen (44029) Wave Buoy

2:04 - Sat 23rd Jul 2016 All times are EDT. -4 hours from GMT.

  • Sig Wave height 1.3ft
  • Peak Period 6s
  • Wind
    7mph
  • Sea Temp 69°f
  • Ar Temp 73°f
  • Sea Pressure 1006.6mb
  • Buoy A01 - Mass. Bay/stellwagen
  • Buoy A01 - Mass. Bay/stellwagen

More Historic Weather Station data

Upgrade to MSW Pro to gain access to the past 30 days of data for over 8000 Wavebouys and Weather Stations around the globe.

Join Pro

Comparision Forecast

View Surf forecast
   
Sáb 07/23 2:04 1.3ft 6s 7
mph
1006.6mb 69f 73f
1:04 1ft 6s 7
mph
1006.9mb 68f 72f
12:04 1ft 7s 7
mph
1007.1mb 68f 72f
11:04 1ft 7s 4
mph
1007.1mb 66f 73f
10:04 1.3ft 3s 4 7 mph 1007.1mb 66f 71f
9:04 2ft 4s 9
mph
1007.5mb 67f 71f
8:04 2.5ft 4s 7
mph
1007.5mb 67f 70f
7:04 2.5ft 4s 11
mph
1007.2mb 67f 70f
6:04 2.5ft 4s 11 13 mph 1006.9mb 67f 70f
5:04 2.5ft 4s 9
mph
1006.7mb 68f 71f
4:04 3ft 5s 11 13 mph 1006.5mb 69f 71f
3:04 3ft 5s 13 16 mph 1006mb 69f 73f
2:04 3ft 5s 16 18 mph 1006.3mb 69f 73f
1:04 3.5ft 5s 18 20 mph 1006.3mb 69f 73f
12:04 3ft 5s 13 16 mph 1006.6mb 69f 72f
Sex 07/22 11:04 2ft 5s 16 18 mph 1006.7mb 69f 73f
10:04 3ft 4s 16 18 mph 1006.7mb 69f 75f
9:04 3.5ft 4s 18 20 mph 1006.3mb 69f 77f
8:04 2.5ft 4s 18 20 mph 1005.8mb 70f 76f
7:04 2.5ft 4s 13 16 mph 1005.7mb 70f 76f
6:04 2.5ft 4s 13 18 mph 1005.6mb 70f 77f
5:04 2.5ft 4s 13 18 mph 1006mb 69f 78f
4:04 2.5ft 4s 13 16 mph 1006.2mb 69f 76f
3:04 2.5ft 4s 11 16 mph 1006.6mb 69f 76f
2:04 2ft 4s 9 11 mph 1007.2mb 69f 74f
1:04 2ft 4s 9 11 mph 1008mb 69f 74f
12:04 1.6ft 4s 11 13 mph 1008.9mb 69f 74f
11:04 2.5ft 4s 11 13 mph 1009.8mb 68f 73f
10:04 2ft 4s 7 9 mph 1010.5mb 68f 72f
9:04 2.5ft 4s 13 16 mph 1011.1mb 68f 71f
8:04 3.5ft 4s 16 18 mph 1011.6mb 68f 71f
7:04 3ft 4s 18 20 mph 1012.1mb 68f 71f
6:04 2.5ft 4s 16 18 mph 1012.2mb 68f 71f
5:04 2.5ft 4s 16 20 mph 1012.2mb 68f 70f
4:04 2.5ft 4s 18 20 mph 1012.3mb 68f 71f
3:04 2.5ft 4s 16 18 mph 1012.8mb 68f 71f
2:04 2.5ft 4s 13 16 mph 1013.5mb 68f 71f
1:04 1.6ft 4s 11
mph
1014mb 69f 71f
12:04 1.3ft 4s 13 16 mph 1014.5mb 69f 72f
Qui 07/21 11:04 1.6ft 3s 13 16 mph 1014.8mb 69f 72f
10:04 1.6ft 3s 16 18 mph 1015.1mb 69f 73f
9:04 1ft 4s 13 16 mph 1015.1mb 69f 74f
8:04 1ft 7s 13 16 mph 1014.9mb 69f 74f
7:04 1ft 8s 9
mph
1015.1mb 69f 73f
6:04 1.3ft 3s 9 11 mph 1015.4mb 69f 74f
5:04 1.3ft 3s 11
mph
1016mb 69f 73f
4:04 0.7ft  -  13 16 mph 1016.3mb 68f 73f
3:04 0.7ft  -  13 16 mph 1016.7mb 69f 73f
2:04 0.7ft  -  11
mph
1017.1mb 69f 72f
1:04 0.7ft  -  7 9 mph 1017.9mb 69f 71f
12:04 0.7ft  -  9 11 mph 1018.8mb 69f 71f
11:04 0.7ft  -  9 11 mph 1019.4mb 68f 70f
10:04 0.7ft  -  7 9 mph 1020.3mb 68f 69f
9:04 0.7ft  -  9 11 mph 1019.8mb 68f 69f
8:04 0.7ft  -  7
mph
1020.2mb 68f 69f
7:04 1ft 2s 9 11 mph 1020.7mb 68f 70f
6:04 0.3ft  -  9 11 mph 1020.3mb 68f 68f
5:04 0.3ft  -  7
mph
1019.8mb 68f 68f
4:04 0.3ft  -  7
mph
1019.3mb 68f 68f
3:04 0.3ft  -  4 7 mph 1019.6mb 68f 68f
2:04 0.7ft  -  7
mph
1019.9mb 68f 69f
1:04 0.7ft  -  4 7 mph 1019.9mb 67f 69f
12:04 0.7ft  -  9
mph
1020mb 68f 70f
Qua 07/20 11:04 0.7ft  -  4
mph
1020mb 68f 69f
10:04 0.7ft  -  4 7 mph 1019.8mb 68f 70f
9:04 0.7ft  -  7 9 mph 1019.5mb 68f 72f
8:04 1ft 6s 7 9 mph 1019.2mb 68f 73f
7:04 1.3ft 3s 9 11 mph 1018.8mb 68f 74f
6:04 1.3ft 2s 11 13 mph 1018.7mb 68f 74f
5:04 1.3ft 3s 11 13 mph 1018.7mb 69f 74f
4:04 1ft 3s 7 9 mph 1019.2mb 69f 74f
3:04 1ft 7s 7 9 mph 1019.7mb 70f 73f
2:04 0.7ft  -  7 9 mph 1020mb 69f 71f
1:04 1ft 6s 2 4 mph 1020.6mb 69f 71f
12:04 1.3ft 6s 7 9 mph 1021mb 68f 71f
11:04 1.3ft 3s 7 9 mph 1021.8mb 67f 70f
10:04 1.6ft 3s 4 7 mph 1022.1mb 67f 70f
9:04 1.3ft 3s 7 9 mph 1022.2mb 67f 68f
8:04 1.6ft 3s 11 13 mph 1022mb 67f 66f
7:04 1.6ft 3s 13
mph
1021.3mb 66f 65f
6:04 1.6ft 3s 11 16 mph 1021.1mb 67f 65f
5:04 1ft 8s 16 18 mph 1020.9mb 67f 66f
4:04 1.3ft 3s 16 18 mph 1020.5mb 67f 67f
3:04 1.6ft 3s 16 18 mph 1020.1mb 67f 68f
2:04 1.6ft 3s 13 18 mph 1019.9mb 67f 68f
1:04 1ft 2s 11 13 mph 1020mb 68f 68f
12:04 1ft 6s 11 13 mph 1019.9mb 68f 68f
Ter 07/19 11:04 1ft 6s 7 9 mph 1019.7mb 68f 69f
10:04 1ft 6s 7 9 mph 1019.5mb 68f 69f
9:04 1ft 2s 4
mph
1018.9mb 68f 70f
8:04 1.6ft 3s 11
mph
1018.2mb 68f 71f